sensor_id;sensor_type;location;lat;lon;timestamp;P1;durP1;ratioP1;P2;durP2;ratioP2
26060;SDS011;36331;51.378;0.018;2023-05-07T00:00:08;45.63;;;15.20;;
26060;SDS011;36331;51.378;0.018;2023-05-07T00:02:38;40.55;;;14.75;;
26060;SDS011;36331;51.378;0.018;2023-05-07T00:05:07;47.40;;;15.15;;
26060;SDS011;36331;51.378;0.018;2023-05-07T00:07:37;51.05;;;17.13;;
26060;SDS011;36331;51.378;0.018;2023-05-07T00:10:06;51.25;;;16.77;;
26060;SDS011;36331;51.378;0.018;2023-05-07T00:12:37;44.58;;;15.07;;
26060;SDS011;36331;51.378;0.018;2023-05-07T00:15:07;55.42;;;17.23;;
26060;SDS011;36331;51.378;0.018;2023-05-07T00:17:37;51.00;;;18.27;;
26060;SDS011;36331;51.378;0.018;2023-05-07T00:20:06;43.45;;;15.18;;
26060;SDS011;36331;51.378;0.018;2023-05-07T00:22:36;50.70;;;16.55;;
26060;SDS011;36331;51.378;0.018;2023-05-07T00:25:05;43.20;;;15.45;;
26060;SDS011;36331;51.378;0.018;2023-05-07T00:27:34;51.10;;;16.38;;
26060;SDS011;36331;51.378;0.018;2023-05-07T00:30:06;47.17;;;15.70;;
26060;SDS011;36331;51.378;0.018;2023-05-07T00:32:35;51.58;;;16.52;;
26060;SDS011;36331;51.378;0.018;2023-05-07T00:35:05;43.28;;;14.88;;
26060;SDS011;36331;51.378;0.018;2023-05-07T00:37:35;50.22;;;15.70;;
26060;SDS011;36331;51.378;0.018;2023-05-07T00:40:04;51.15;;;16.13;;
26060;SDS011;36331;51.378;0.018;2023-05-07T00:42:35;56.97;;;17.88;;
26060;SDS011;36331;51.378;0.018;2023-05-07T00:45:06;51.75;;;16.52;;
26060;SDS011;36331;51.378;0.018;2023-05-07T00:47:37;52.45;;;16.95;;
26060;SDS011;36331;51.378;0.018;2023-05-07T00:50:07;46.15;;;15.43;;
26060;SDS011;36331;51.378;0.018;2023-05-07T00:52:37;46.70;;;14.75;;
26060;SDS011;36331;51.378;0.018;2023-05-07T00:55:06;39.38;;;13.00;;
26060;SDS011;36331;51.378;0.018;2023-05-07T00:57:36;39.53;;;13.32;;
26060;SDS011;36331;51.378;0.018;2023-05-07T01:00:08;47.63;;;15.60;;
26060;SDS011;36331;51.378;0.018;2023-05-07T01:02:40;49.78;;;15.27;;
26060;SDS011;36331;51.378;0.018;2023-05-07T01:05:10;47.85;;;15.68;;
26060;SDS011;36331;51.378;0.018;2023-05-07T01:07:40;44.78;;;15.82;;
26060;SDS011;36331;51.378;0.018;2023-05-07T01:10:09;36.10;;;12.52;;
26060;SDS011;36331;51.378;0.018;2023-05-07T01:12:40;34.83;;;12.57;;
26060;SDS011;36331;51.378;0.018;2023-05-07T01:15:11;37.22;;;12.45;;
26060;SDS011;36331;51.378;0.018;2023-05-07T01:17:42;40.15;;;13.23;;
26060;SDS011;36331;51.378;0.018;2023-05-07T01:20:18;31.60;;;10.57;;
26060;SDS011;36331;51.378;0.018;2023-05-07T01:22:51;27.45;;;10.23;;
26060;SDS011;36331;51.378;0.018;2023-05-07T01:25:21;34.60;;;11.70;;
26060;SDS011;36331;51.378;0.018;2023-05-07T01:27:53;33.53;;;10.43;;
26060;SDS011;36331;51.378;0.018;2023-05-07T01:30:26;35.10;;;12.02;;
26060;SDS011;36331;51.378;0.018;2023-05-07T01:32:58;37.17;;;12.75;;
26060;SDS011;36331;51.378;0.018;2023-05-07T01:35:29;36.85;;;12.25;;
26060;SDS011;36331;51.378;0.018;2023-05-07T01:37:59;33.13;;;10.98;;
26060;SDS011;36331;51.378;0.018;2023-05-07T01:40:31;33.08;;;11.02;;
26060;SDS011;36331;51.378;0.018;2023-05-07T01:43:01;32.90;;;10.98;;
26060;SDS011;36331;51.378;0.018;2023-05-07T01:45:33;34.88;;;11.45;;
26060;SDS011;36331;51.378;0.018;2023-05-07T01:48:03;39.70;;;12.48;;
26060;SDS011;36331;51.378;0.018;2023-05-07T01:50:32;31.17;;;10.55;;
26060;SDS011;36331;51.378;0.018;2023-05-07T01:53:03;36.08;;;11.80;;
26060;SDS011;36331;51.378;0.018;2023-05-07T01:55:32;33.95;;;10.45;;
26060;SDS011;36331;51.378;0.018;2023-05-07T01:58:04;38.33;;;12.00;;
26060;SDS011;36331;51.378;0.018;2023-05-07T02:00:33;34.30;;;10.45;;
26060;SDS011;36331;51.378;0.018;2023-05-07T02:03:02;32.97;;;10.40;;
26060;SDS011;36331;51.378;0.018;2023-05-07T02:05:51;33.10;;;10.02;;
26060;SDS011;36331;51.378;0.018;2023-05-07T02:08:37;27.88;;;9.13;;
26060;SDS011;36331;51.378;0.018;2023-05-07T02:11:06;32.38;;;10.52;;
26060;SDS011;36331;51.378;0.018;2023-05-07T02:13:36;29.58;;;9.75;;
26060;SDS011;36331;51.378;0.018;2023-05-07T02:16:06;31.83;;;10.73;;
26060;SDS011;36331;51.378;0.018;2023-05-07T02:18:35;36.47;;;11.63;;
26060;SDS011;36331;51.378;0.018;2023-05-07T02:21:04;34.63;;;11.20;;
26060;SDS011;36331;51.378;0.018;2023-05-07T02:23:33;35.65;;;11.57;;
26060;SDS011;36331;51.378;0.018;2023-05-07T02:26:04;32.08;;;10.98;;
26060;SDS011;36331;51.378;0.018;2023-05-07T02:28:33;32.40;;;10.80;;
26060;SDS011;36331;51.378;0.018;2023-05-07T02:31:04;34.10;;;11.27;;
26060;SDS011;36331;51.378;0.018;2023-05-07T02:33:34;33.45;;;10.98;;
26060;SDS011;36331;51.378;0.018;2023-05-07T02:36:06;35.13;;;10.93;;
26060;SDS011;36331;51.378;0.018;2023-05-07T02:38:41;33.33;;;10.55;;
26060;SDS011;36331;51.378;0.018;2023-05-07T02:41:11;34.33;;;11.93;;
26060;SDS011;36331;51.378;0.018;2023-05-07T02:43:40;30.83;;;10.27;;
26060;SDS011;36331;51.378;0.018;2023-05-07T02:46:10;31.83;;;11.25;;
26060;SDS011;36331;51.378;0.018;2023-05-07T02:48:43;26.52;;;9.38;;
26060;SDS011;36331;51.378;0.018;2023-05-07T02:51:12;37.50;;;12.10;;
26060;SDS011;36331;51.378;0.018;2023-05-07T02:53:42;33.92;;;12.30;;
26060;SDS011;36331;51.378;0.018;2023-05-07T02:56:13;36.17;;;12.43;;
26060;SDS011;36331;51.378;0.018;2023-05-07T02:58:42;25.20;;;10.30;;
26060;SDS011;36331;51.378;0.018;2023-05-07T03:01:13;36.42;;;12.55;;
26060;SDS011;36331;51.378;0.018;2023-05-07T03:04:05;33.30;;;11.48;;
26060;SDS011;36331;51.378;0.018;2023-05-07T03:06:35;38.90;;;12.90;;
26060;SDS011;36331;51.378;0.018;2023-05-07T03:09:03;33.67;;;11.73;;
26060;SDS011;36331;51.378;0.018;2023-05-07T03:11:34;20.33;;;7.90;;
26060;SDS011;36331;51.378;0.018;2023-05-07T03:14:04;24.90;;;9.32;;
26060;SDS011;36331;51.378;0.018;2023-05-07T03:16:33;30.42;;;10.93;;
26060;SDS011;36331;51.378;0.018;2023-05-07T03:19:02;35.13;;;11.48;;
26060;SDS011;36331;51.378;0.018;2023-05-07T03:21:32;32.67;;;11.10;;
26060;SDS011;36331;51.378;0.018;2023-05-07T03:24:01;39.35;;;12.50;;
26060;SDS011;36331;51.378;0.018;2023-05-07T03:26:30;38.75;;;12.35;;
26060;SDS011;36331;51.378;0.018;2023-05-07T03:29:02;34.95;;;11.45;;
26060;SDS011;36331;51.378;0.018;2023-05-07T03:31:31;18.63;;;7.30;;
26060;SDS011;36331;51.378;0.018;2023-05-07T03:34:01;28.35;;;9.93;;
26060;SDS011;36331;51.378;0.018;2023-05-07T03:36:31;33.85;;;11.68;;
26060;SDS011;36331;51.378;0.018;2023-05-07T03:39:00;31.95;;;11.20;;
26060;SDS011;36331;51.378;0.018;2023-05-07T03:41:36;32.95;;;10.73;;
26060;SDS011;36331;51.378;0.018;2023-05-07T03:44:07;37.05;;;11.63;;
26060;SDS011;36331;51.378;0.018;2023-05-07T03:46:36;28.58;;;9.77;;
26060;SDS011;36331;51.378;0.018;2023-05-07T03:49:06;33.58;;;11.30;;
26060;SDS011;36331;51.378;0.018;2023-05-07T03:51:36;34.55;;;11.23;;
26060;SDS011;36331;51.378;0.018;2023-05-07T03:54:07;34.33;;;11.38;;
26060;SDS011;36331;51.378;0.018;2023-05-07T03:56:41;32.75;;;11.25;;
26060;SDS011;36331;51.378;0.018;2023-05-07T03:59:12;31.60;;;10.77;;
26060;SDS011;36331;51.378;0.018;2023-05-07T04:01:43;33.53;;;11.35;;
26060;SDS011;36331;51.378;0.018;2023-05-07T04:04:16;35.92;;;11.43;;
26060;SDS011;36331;51.378;0.018;2023-05-07T04:06:45;27.35;;;9.65;;
26060;SDS011;36331;51.378;0.018;2023-05-07T04:09:14;36.50;;;11.52;;
26060;SDS011;36331;51.378;0.018;2023-05-07T04:11:45;34.78;;;12.20;;
26060;SDS011;36331;51.378;0.018;2023-05-07T04:14:16;35.97;;;11.18;;
26060;SDS011;36331;51.378;0.018;2023-05-07T04:16:45;37.95;;;11.80;;
26060;SDS011;36331;51.378;0.018;2023-05-07T04:19:14;38.65;;;12.45;;
26060;SDS011;36331;51.378;0.018;2023-05-07T04:21:46;43.00;;;13.00;;
26060;SDS011;36331;51.378;0.018;2023-05-07T04:24:15;37.72;;;12.45;;
26060;SDS011;36331;51.378;0.018;2023-05-07T04:26:45;41.85;;;13.40;;
26060;SDS011;36331;51.378;0.018;2023-05-07T04:29:16;40.63;;;13.20;;
26060;SDS011;36331;51.378;0.018;2023-05-07T04:31:46;37.45;;;12.20;;
26060;SDS011;36331;51.378;0.018;2023-05-07T04:34:15;38.10;;;11.70;;
26060;SDS011;36331;51.378;0.018;2023-05-07T04:36:44;41.80;;;13.25;;
26060;SDS011;36331;51.378;0.018;2023-05-07T04:39:14;32.25;;;10.80;;
26060;SDS011;36331;51.378;0.018;2023-05-07T04:41:46;29.67;;;9.95;;
26060;SDS011;36331;51.378;0.018;2023-05-07T04:44:16;28.85;;;10.10;;
26060;SDS011;36331;51.378;0.018;2023-05-07T04:46:45;30.73;;;10.57;;
26060;SDS011;36331;51.378;0.018;2023-05-07T04:49:15;28.98;;;10.30;;
26060;SDS011;36331;51.378;0.018;2023-05-07T04:51:44;33.00;;;11.07;;
26060;SDS011;36331;51.378;0.018;2023-05-07T04:54:19;36.08;;;11.10;;
26060;SDS011;36331;51.378;0.018;2023-05-07T04:56:48;30.48;;;10.30;;
26060;SDS011;36331;51.378;0.018;2023-05-07T04:59:19;36.05;;;12.32;;
26060;SDS011;36331;51.378;0.018;2023-05-07T05:01:49;39.50;;;12.50;;
26060;SDS011;36331;51.378;0.018;2023-05-07T05:04:19;41.60;;;13.38;;
26060;SDS011;36331;51.378;0.018;2023-05-07T05:06:49;34.17;;;11.30;;
26060;SDS011;36331;51.378;0.018;2023-05-07T05:09:18;31.92;;;11.30;;
26060;SDS011;36331;51.378;0.018;2023-05-07T05:11:47;30.65;;;10.65;;
26060;SDS011;36331;51.378;0.018;2023-05-07T05:14:16;39.38;;;12.75;;
26060;SDS011;36331;51.378;0.018;2023-05-07T05:16:47;35.55;;;11.48;;
26060;SDS011;36331;51.378;0.018;2023-05-07T05:19:16;37.10;;;13.27;;
26060;SDS011;36331;51.378;0.018;2023-05-07T05:21:45;36.45;;;11.75;;
26060;SDS011;36331;51.378;0.018;2023-05-07T05:24:14;38.70;;;12.93;;
26060;SDS011;36331;51.378;0.018;2023-05-07T05:26:43;32.00;;;11.13;;
26060;SDS011;36331;51.378;0.018;2023-05-07T05:29:12;30.30;;;11.27;;
26060;SDS011;36331;51.378;0.018;2023-05-07T05:31:42;34.90;;;12.52;;
26060;SDS011;36331;51.378;0.018;2023-05-07T05:34:12;39.42;;;13.05;;
26060;SDS011;36331;51.378;0.018;2023-05-07T05:36:42;31.27;;;11.40;;
26060;SDS011;36331;51.378;0.018;2023-05-07T05:39:13;44.80;;;14.52;;
26060;SDS011;36331;51.378;0.018;2023-05-07T05:41:43;38.00;;;13.52;;
26060;SDS011;36331;51.378;0.018;2023-05-07T05:44:13;42.17;;;15.00;;
26060;SDS011;36331;51.378;0.018;2023-05-07T05:46:43;42.63;;;14.63;;
26060;SDS011;36331;51.378;0.018;2023-05-07T05:49:15;44.03;;;14.15;;
26060;SDS011;36331;51.378;0.018;2023-05-07T05:51:44;42.03;;;13.70;;
26060;SDS011;36331;51.378;0.018;2023-05-07T05:54:14;40.05;;;13.07;;
26060;SDS011;36331;51.378;0.018;2023-05-07T05:56:43;48.33;;;14.90;;
26060;SDS011;36331;51.378;0.018;2023-05-07T05:59:13;41.00;;;13.13;;
26060;SDS011;36331;51.378;0.018;2023-05-07T06:01:42;42.65;;;13.73;;
26060;SDS011;36331;51.378;0.018;2023-05-07T06:04:12;42.58;;;13.77;;
26060;SDS011;36331;51.378;0.018;2023-05-07T06:06:42;40.13;;;13.15;;
26060;SDS011;36331;51.378;0.018;2023-05-07T06:09:11;48.20;;;14.63;;
26060;SDS011;36331;51.378;0.018;2023-05-07T06:11:43;39.15;;;12.55;;
26060;SDS011;36331;51.378;0.018;2023-05-07T06:14:13;43.20;;;13.75;;
26060;SDS011;36331;51.378;0.018;2023-05-07T06:16:43;41.80;;;13.32;;
26060;SDS011;36331;51.378;0.018;2023-05-07T06:19:13;37.25;;;12.45;;
26060;SDS011;36331;51.378;0.018;2023-05-07T06:21:46;46.92;;;14.90;;
26060;SDS011;36331;51.378;0.018;2023-05-07T06:24:15;42.72;;;13.90;;
26060;SDS011;36331;51.378;0.018;2023-05-07T06:26:44;36.15;;;11.57;;
26060;SDS011;36331;51.378;0.018;2023-05-07T06:29:13;35.45;;;11.20;;
26060;SDS011;36331;51.378;0.018;2023-05-07T06:31:43;44.55;;;13.27;;
26060;SDS011;36331;51.378;0.018;2023-05-07T06:34:13;41.38;;;12.80;;
26060;SDS011;36331;51.378;0.018;2023-05-07T06:36:42;42.70;;;13.43;;
26060;SDS011;36331;51.378;0.018;2023-05-07T06:39:26;38.78;;;12.40;;
26060;SDS011;36331;51.378;0.018;2023-05-07T06:41:55;33.13;;;11.47;;
26060;SDS011;36331;51.378;0.018;2023-05-07T06:44:30;30.65;;;9.95;;
26060;SDS011;36331;51.378;0.018;2023-05-07T06:47:07;34.78;;;11.07;;
26060;SDS011;36331;51.378;0.018;2023-05-07T06:49:39;34.40;;;10.93;;
26060;SDS011;36331;51.378;0.018;2023-05-07T06:52:08;31.17;;;10.15;;
26060;SDS011;36331;51.378;0.018;2023-05-07T06:54:38;35.92;;;11.13;;
26060;SDS011;36331;51.378;0.018;2023-05-07T06:57:08;35.88;;;11.70;;
26060;SDS011;36331;51.378;0.018;2023-05-07T06:59:37;29.42;;;9.25;;
26060;SDS011;36331;51.378;0.018;2023-05-07T07:02:07;46.22;;;13.02;;
26060;SDS011;36331;51.378;0.018;2023-05-07T07:04:38;44.22;;;12.75;;
26060;SDS011;36331;51.378;0.018;2023-05-07T07:07:10;34.78;;;10.32;;
26060;SDS011;36331;51.378;0.018;2023-05-07T07:09:42;30.42;;;9.18;;
26060;SDS011;36331;51.378;0.018;2023-05-07T07:12:13;39.47;;;11.45;;
26060;SDS011;36331;51.378;0.018;2023-05-07T07:14:42;31.58;;;10.27;;
26060;SDS011;36331;51.378;0.018;2023-05-07T07:17:12;28.35;;;9.43;;
26060;SDS011;36331;51.378;0.018;2023-05-07T07:19:41;30.95;;;9.63;;
26060;SDS011;36331;51.378;0.018;2023-05-07T07:22:10;33.85;;;10.55;;
26060;SDS011;36331;51.378;0.018;2023-05-07T07:24:39;31.20;;;10.35;;
26060;SDS011;36331;51.378;0.018;2023-05-07T07:27:12;33.38;;;10.10;;
26060;SDS011;36331;51.378;0.018;2023-05-07T07:29:41;37.28;;;11.10;;
26060;SDS011;36331;51.378;0.018;2023-05-07T07:32:10;29.88;;;9.43;;
26060;SDS011;36331;51.378;0.018;2023-05-07T07:34:40;29.75;;;9.93;;
26060;SDS011;36331;51.378;0.018;2023-05-07T07:37:09;35.30;;;10.60;;
26060;SDS011;36331;51.378;0.018;2023-05-07T07:39:38;33.92;;;10.98;;
26060;SDS011;36331;51.378;0.018;2023-05-07T07:42:08;37.78;;;11.07;;
26060;SDS011;36331;51.378;0.018;2023-05-07T07:44:39;38.00;;;10.45;;
26060;SDS011;36331;51.378;0.018;2023-05-07T07:47:11;41.00;;;11.95;;
26060;SDS011;36331;51.378;0.018;2023-05-07T07:49:42;38.20;;;11.27;;
26060;SDS011;36331;51.378;0.018;2023-05-07T07:52:14;35.65;;;10.63;;
26060;SDS011;36331;51.378;0.018;2023-05-07T07:54:44;39.40;;;11.40;;
26060;SDS011;36331;51.378;0.018;2023-05-07T07:57:13;32.33;;;10.75;;
26060;SDS011;36331;51.378;0.018;2023-05-07T07:59:44;35.83;;;10.15;;
26060;SDS011;36331;51.378;0.018;2023-05-07T08:02:15;38.80;;;11.25;;
26060;SDS011;36331;51.378;0.018;2023-05-07T08:04:44;41.60;;;12.73;;
26060;SDS011;36331;51.378;0.018;2023-05-07T08:07:14;44.70;;;12.30;;
26060;SDS011;36331;51.378;0.018;2023-05-07T08:09:47;41.20;;;12.15;;
26060;SDS011;36331;51.378;0.018;2023-05-07T08:12:20;44.30;;;12.52;;
26060;SDS011;36331;51.378;0.018;2023-05-07T08:14:50;43.30;;;13.02;;
26060;SDS011;36331;51.378;0.018;2023-05-07T08:17:20;63.97;;;17.67;;
26060;SDS011;36331;51.378;0.018;2023-05-07T08:19:52;39.22;;;12.98;;
26060;SDS011;36331;51.378;0.018;2023-05-07T08:22:21;34.35;;;10.70;;
26060;SDS011;36331;51.378;0.018;2023-05-07T08:24:50;31.02;;;11.13;;
26060;SDS011;36331;51.378;0.018;2023-05-07T08:27:20;36.38;;;11.15;;
26060;SDS011;36331;51.378;0.018;2023-05-07T08:29:51;32.97;;;11.35;;
26060;SDS011;36331;51.378;0.018;2023-05-07T08:32:21;29.23;;;10.87;;
26060;SDS011;36331;51.378;0.018;2023-05-07T08:34:51;32.65;;;11.60;;
26060;SDS011;36331;51.378;0.018;2023-05-07T08:37:20;32.65;;;11.50;;
26060;SDS011;36331;51.378;0.018;2023-05-07T08:39:49;29.30;;;10.85;;
26060;SDS011;36331;51.378;0.018;2023-05-07T08:42:22;30.40;;;10.73;;
26060;SDS011;36331;51.378;0.018;2023-05-07T08:44:54;26.13;;;10.40;;
26060;SDS011;36331;51.378;0.018;2023-05-07T08:47:28;23.05;;;9.70;;
26060;SDS011;36331;51.378;0.018;2023-05-07T08:50:00;29.95;;;11.05;;
26060;SDS011;36331;51.378;0.018;2023-05-07T08:52:30;25.63;;;10.25;;
26060;SDS011;36331;51.378;0.018;2023-05-07T08:54:59;23.58;;;9.50;;
26060;SDS011;36331;51.378;0.018;2023-05-07T08:57:29;26.10;;;10.93;;
26060;SDS011;36331;51.378;0.018;2023-05-07T09:00:00;22.05;;;10.80;;
26060;SDS011;36331;51.378;0.018;2023-05-07T09:02:30;24.30;;;10.52;;
26060;SDS011;36331;51.378;0.018;2023-05-07T09:05:00;26.35;;;11.75;;
26060;SDS011;36331;51.378;0.018;2023-05-07T09:07:29;26.30;;;12.18;;
26060;SDS011;36331;51.378;0.018;2023-05-07T09:10:00;24.10;;;11.23;;
26060;SDS011;36331;51.378;0.018;2023-05-07T09:12:30;24.08;;;10.45;;
26060;SDS011;36331;51.378;0.018;2023-05-07T09:15:01;28.20;;;12.15;;
26060;SDS011;36331;51.378;0.018;2023-05-07T09:17:31;23.08;;;10.52;;
26060;SDS011;36331;51.378;0.018;2023-05-07T09:20:04;20.45;;;8.90;;
26060;SDS011;36331;51.378;0.018;2023-05-07T09:22:37;20.35;;;9.02;;
26060;SDS011;36331;51.378;0.018;2023-05-07T09:25:10;24.63;;;9.65;;
26060;SDS011;36331;51.378;0.018;2023-05-07T09:27:41;20.33;;;8.50;;
26060;SDS011;36331;51.378;0.018;2023-05-07T09:30:13;22.98;;;8.55;;
26060;SDS011;36331;51.378;0.018;2023-05-07T09:32:42;23.80;;;8.90;;
26060;SDS011;36331;51.378;0.018;2023-05-07T09:35:17;28.05;;;9.90;;
26060;SDS011;36331;51.378;0.018;2023-05-07T09:37:53;17.48;;;7.30;;
26060;SDS011;36331;51.378;0.018;2023-05-07T09:40:23;22.13;;;8.55;;
26060;SDS011;36331;51.378;0.018;2023-05-07T09:42:54;18.20;;;7.40;;
26060;SDS011;36331;51.378;0.018;2023-05-07T09:45:26;18.88;;;7.03;;
26060;SDS011;36331;51.378;0.018;2023-05-07T09:47:57;21.52;;;7.95;;
26060;SDS011;36331;51.378;0.018;2023-05-07T09:50:29;19.27;;;7.60;;
26060;SDS011;36331;51.378;0.018;2023-05-07T09:53:00;22.23;;;7.85;;
26060;SDS011;36331;51.378;0.018;2023-05-07T09:55:30;22.83;;;7.70;;
26060;SDS011;36331;51.378;0.018;2023-05-07T09:57:59;19.48;;;6.80;;
26060;SDS011;36331;51.378;0.018;2023-05-07T10:00:31;14.55;;;5.47;;
26060;SDS011;36331;51.378;0.018;2023-05-07T10:03:08;13.50;;;5.28;;
26060;SDS011;36331;51.378;0.018;2023-05-07T10:08:20;14.10;;;5.50;;
26060;SDS011;36331;51.378;0.018;2023-05-07T10:10:53;17.58;;;6.20;;
26060;SDS011;36331;51.378;0.018;2023-05-07T10:13:24;17.47;;;6.27;;
26060;SDS011;36331;51.378;0.018;2023-05-07T10:15:57;19.48;;;6.47;;
26060;SDS011;36331;51.378;0.018;2023-05-07T10:18:31;20.13;;;6.40;;
26060;SDS011;36331;51.378;0.018;2023-05-07T10:21:08;18.90;;;6.40;;
26060;SDS011;36331;51.378;0.018;2023-05-07T10:23:40;21.25;;;7.28;;
26060;SDS011;36331;51.378;0.018;2023-05-07T10:26:10;25.67;;;8.15;;
26060;SDS011;36331;51.378;0.018;2023-05-07T10:28:42;25.30;;;7.83;;
26060;SDS011;36331;51.378;0.018;2023-05-07T10:31:27;24.60;;;7.57;;
26060;SDS011;36331;51.378;0.018;2023-05-07T10:34:02;21.55;;;7.10;;
26060;SDS011;36331;51.378;0.018;2023-05-07T10:36:32;19.40;;;6.88;;
26060;SDS011;36331;51.378;0.018;2023-05-07T10:39:05;20.95;;;6.70;;
26060;SDS011;36331;51.378;0.018;2023-05-07T10:41:35;23.77;;;7.53;;
26060;SDS011;36331;51.378;0.018;2023-05-07T10:44:06;23.20;;;7.32;;
26060;SDS011;36331;51.378;0.018;2023-05-07T10:46:38;23.48;;;7.68;;
26060;SDS011;36331;51.378;0.018;2023-05-07T10:49:13;26.58;;;8.00;;
26060;SDS011;36331;51.378;0.018;2023-05-07T10:51:53;24.55;;;7.43;;
26060;SDS011;36331;51.378;0.018;2023-05-07T10:54:47;23.23;;;7.35;;
26060;SDS011;36331;51.378;0.018;2023-05-07T10:57:38;13.20;;;4.97;;
26060;SDS011;36331;51.378;0.018;2023-05-07T11:03:11;24.15;;;7.20;;
26060;SDS011;36331;51.378;0.018;2023-05-07T11:05:48;25.25;;;7.45;;
26060;SDS011;36331;51.378;0.018;2023-05-07T11:08:54;25.92;;;7.85;;
26060;SDS011;36331;51.378;0.018;2023-05-07T11:11:46;22.52;;;7.60;;
26060;SDS011;36331;51.378;0.018;2023-05-07T11:14:44;24.95;;;7.63;;
26060;SDS011;36331;51.378;0.018;2023-05-07T11:17:21;25.08;;;7.70;;
26060;SDS011;36331;51.378;0.018;2023-05-07T11:20:00;29.98;;;8.70;;
26060;SDS011;36331;51.378;0.018;2023-05-07T11:22:46;24.42;;;7.38;;
26060;SDS011;36331;51.378;0.018;2023-05-07T11:25:26;28.00;;;8.27;;
26060;SDS011;36331;51.378;0.018;2023-05-07T11:28:05;29.90;;;8.93;;
26060;SDS011;36331;51.378;0.018;2023-05-07T11:30:42;28.45;;;8.93;;
26060;SDS011;36331;51.378;0.018;2023-05-07T11:33:16;28.58;;;9.02;;
26060;SDS011;36331;51.378;0.018;2023-05-07T11:35:49;22.95;;;7.95;;
26060;SDS011;36331;51.378;0.018;2023-05-07T11:38:20;24.77;;;7.85;;
26060;SDS011;36331;51.378;0.018;2023-05-07T11:40:50;28.15;;;8.88;;
26060;SDS011;36331;51.378;0.018;2023-05-07T11:43:20;27.25;;;8.70;;
26060;SDS011;36331;51.378;0.018;2023-05-07T11:45:50;24.77;;;8.10;;
26060;SDS011;36331;51.378;0.018;2023-05-07T11:48:20;23.20;;;7.55;;
26060;SDS011;36331;51.378;0.018;2023-05-07T11:50:51;23.42;;;7.45;;
26060;SDS011;36331;51.378;0.018;2023-05-07T11:53:23;24.02;;;7.80;;
26060;SDS011;36331;51.378;0.018;2023-05-07T11:55:53;22.83;;;7.40;;
26060;SDS011;36331;51.378;0.018;2023-05-07T11:58:24;24.50;;;8.15;;
26060;SDS011;36331;51.378;0.018;2023-05-07T12:00:53;22.52;;;7.35;;
26060;SDS011;36331;51.378;0.018;2023-05-07T12:03:23;27.75;;;9.05;;
26060;SDS011;36331;51.378;0.018;2023-05-07T12:05:59;30.90;;;9.88;;
26060;SDS011;36331;51.378;0.018;2023-05-07T12:08:28;28.80;;;9.20;;
26060;SDS011;36331;51.378;0.018;2023-05-07T12:10:58;28.40;;;9.63;;
26060;SDS011;36331;51.378;0.018;2023-05-07T12:13:27;31.58;;;9.65;;
26060;SDS011;36331;51.378;0.018;2023-05-07T12:15:57;27.80;;;8.93;;
26060;SDS011;36331;51.378;0.018;2023-05-07T12:18:26;24.23;;;8.18;;
26060;SDS011;36331;51.378;0.018;2023-05-07T12:20:58;25.65;;;8.27;;
26060;SDS011;36331;51.378;0.018;2023-05-07T12:23:28;23.20;;;7.83;;
26060;SDS011;36331;51.378;0.018;2023-05-07T12:25:58;23.08;;;7.82;;
26060;SDS011;36331;51.378;0.018;2023-05-07T12:28:31;24.50;;;8.77;;
26060;SDS011;36331;51.378;0.018;2023-05-07T12:31:01;21.20;;;7.40;;
26060;SDS011;36331;51.378;0.018;2023-05-07T12:33:30;26.58;;;9.07;;
26060;SDS011;36331;51.378;0.018;2023-05-07T12:36:02;25.48;;;8.77;;
26060;SDS011;36331;51.378;0.018;2023-05-07T12:38:34;23.05;;;8.13;;
26060;SDS011;36331;51.378;0.018;2023-05-07T12:41:04;28.30;;;9.07;;
26060;SDS011;36331;51.378;0.018;2023-05-07T12:43:34;26.98;;;8.68;;
26060;SDS011;36331;51.378;0.018;2023-05-07T12:46:04;26.10;;;8.55;;
26060;SDS011;36331;51.378;0.018;2023-05-07T12:48:35;25.70;;;8.88;;
26060;SDS011;36331;51.378;0.018;2023-05-07T12:51:06;26.10;;;8.07;;
26060;SDS011;36331;51.378;0.018;2023-05-07T12:53:39;27.77;;;9.00;;
26060;SDS011;36331;51.378;0.018;2023-05-07T12:56:09;23.50;;;8.13;;
26060;SDS011;36331;51.378;0.018;2023-05-07T12:58:38;23.42;;;8.18;;
26060;SDS011;36331;51.378;0.018;2023-05-07T13:01:08;26.60;;;8.80;;
26060;SDS011;36331;51.378;0.018;2023-05-07T13:03:44;28.15;;;9.00;;
26060;SDS011;36331;51.378;0.018;2023-05-07T13:06:18;25.88;;;8.75;;
26060;SDS011;36331;51.378;0.018;2023-05-07T13:08:48;22.83;;;7.80;;
26060;SDS011;36331;51.378;0.018;2023-05-07T13:11:17;28.02;;;9.25;;
26060;SDS011;36331;51.378;0.018;2023-05-07T13:13:46;20.65;;;7.32;;
26060;SDS011;36331;51.378;0.018;2023-05-07T13:16:15;25.83;;;9.02;;
26060;SDS011;36331;51.378;0.018;2023-05-07T13:18:48;30.27;;;9.77;;
26060;SDS011;36331;51.378;0.018;2023-05-07T13:21:18;26.27;;;8.75;;
26060;SDS011;36331;51.378;0.018;2023-05-07T13:23:47;29.48;;;9.40;;
26060;SDS011;36331;51.378;0.018;2023-05-07T13:26:17;26.67;;;8.85;;
26060;SDS011;36331;51.378;0.018;2023-05-07T13:28:53;28.65;;;9.65;;
26060;SDS011;36331;51.378;0.018;2023-05-07T13:31:22;31.42;;;9.73;;
26060;SDS011;36331;51.378;0.018;2023-05-07T13:33:51;29.38;;;9.60;;
26060;SDS011;36331;51.378;0.018;2023-05-07T13:36:21;31.38;;;9.65;;
26060;SDS011;36331;51.378;0.018;2023-05-07T13:38:51;25.13;;;8.43;;
26060;SDS011;36331;51.378;0.018;2023-05-07T13:41:20;27.70;;;9.02;;
26060;SDS011;36331;51.378;0.018;2023-05-07T13:43:49;23.88;;;8.13;;
26060;SDS011;36331;51.378;0.018;2023-05-07T13:46:18;26.95;;;8.82;;
26060;SDS011;36331;51.378;0.018;2023-05-07T13:48:47;27.13;;;8.45;;
26060;SDS011;36331;51.378;0.018;2023-05-07T13:51:17;28.17;;;8.02;;
26060;SDS011;36331;51.378;0.018;2023-05-07T13:53:47;26.25;;;7.82;;
26060;SDS011;36331;51.378;0.018;2023-05-07T13:56:17;25.35;;;8.35;;
26060;SDS011;36331;51.378;0.018;2023-05-07T13:58:47;25.75;;;8.10;;
26060;SDS011;36331;51.378;0.018;2023-05-07T14:01:26;27.23;;;8.35;;
26060;SDS011;36331;51.378;0.018;2023-05-07T14:03:56;28.73;;;8.25;;
26060;SDS011;36331;51.378;0.018;2023-05-07T14:06:29;17.73;;;5.32;;
26060;SDS011;36331;51.378;0.018;2023-05-07T14:09:01;24.65;;;7.13;;
26060;SDS011;36331;51.378;0.018;2023-05-07T14:11:34;22.80;;;6.15;;
26060;SDS011;36331;51.378;0.018;2023-05-07T14:14:04;23.63;;;6.57;;
26060;SDS011;36331;51.378;0.018;2023-05-07T14:16:34;19.90;;;5.78;;
26060;SDS011;36331;51.378;0.018;2023-05-07T14:19:07;21.05;;;5.95;;
26060;SDS011;36331;51.378;0.018;2023-05-07T14:21:37;25.30;;;7.43;;
26060;SDS011;36331;51.378;0.018;2023-05-07T14:24:08;21.77;;;6.57;;
26060;SDS011;36331;51.378;0.018;2023-05-07T14:26:38;24.17;;;7.15;;
26060;SDS011;36331;51.378;0.018;2023-05-07T14:29:08;27.40;;;7.82;;
26060;SDS011;36331;51.378;0.018;2023-05-07T14:31:37;25.70;;;7.60;;
26060;SDS011;36331;51.378;0.018;2023-05-07T14:34:06;29.27;;;8.13;;
26060;SDS011;36331;51.378;0.018;2023-05-07T14:36:36;30.73;;;7.53;;
26060;SDS011;36331;51.378;0.018;2023-05-07T14:39:05;23.42;;;6.72;;
26060;SDS011;36331;51.378;0.018;2023-05-07T14:41:36;22.48;;;6.43;;
26060;SDS011;36331;51.378;0.018;2023-05-07T14:44:05;21.55;;;6.45;;
26060;SDS011;36331;51.378;0.018;2023-05-07T14:46:34;26.17;;;6.85;;
26060;SDS011;36331;51.378;0.018;2023-05-07T14:49:04;22.67;;;6.38;;
26060;SDS011;36331;51.378;0.018;2023-05-07T14:51:44;21.67;;;6.28;;
26060;SDS011;36331;51.378;0.018;2023-05-07T14:54:13;27.17;;;7.53;;